sensor_id;sensor_type;location;lat;lon;timestamp;P1;durP1;ratioP1;P2;durP2;ratioP2
17784;SDS011;9016;53.582;10.062;2023-04-28T00:00:52;0.20;;;0.20;;
17784;SDS011;9016;53.582;10.062;2023-04-28T00:03:21;0.20;;;0.20;;
17784;SDS011;9016;53.582;10.062;2023-04-28T00:05:49;0.20;;;0.20;;
17784;SDS011;9016;53.582;10.062;2023-04-28T00:08:19;0.20;;;0.20;;
17784;SDS011;9016;53.582;10.062;2023-04-28T00:10:49;0.20;;;0.20;;
17784;SDS011;9016;53.582;10.062;2023-04-28T00:13:16;0.20;;;0.20;;
17784;SDS011;9016;53.582;10.062;2023-04-28T00:15:44;0.20;;;0.20;;
17784;SDS011;9016;53.582;10.062;2023-04-28T00:18:14;0.20;;;0.20;;
17784;SDS011;9016;53.582;10.062;2023-04-28T00:20:42;0.20;;;0.20;;
17784;SDS011;9016;53.582;10.062;2023-04-28T00:23:10;0.20;;;0.20;;
17784;SDS011;9016;53.582;10.062;2023-04-28T00:25:38;0.20;;;0.20;;
17784;SDS011;9016;53.582;10.062;2023-04-28T00:28:06;0.20;;;0.20;;
17784;SDS011;9016;53.582;10.062;2023-04-28T00:30:34;0.20;;;0.20;;
17784;SDS011;9016;53.582;10.062;2023-04-28T00:33:01;0.30;;;0.30;;
17784;SDS011;9016;53.582;10.062;2023-04-28T00:35:31;0.20;;;0.20;;
17784;SDS011;9016;53.582;10.062;2023-04-28T00:37:59;0.23;;;0.23;;
17784;SDS011;9016;53.582;10.062;2023-04-28T00:40:31;0.20;;;0.20;;
17784;SDS011;9016;53.582;10.062;2023-04-28T00:43:00;0.20;;;0.20;;
17784;SDS011;9016;53.582;10.062;2023-04-28T00:45:28;0.20;;;0.20;;
17784;SDS011;9016;53.582;10.062;2023-04-28T00:47:57;0.20;;;0.20;;
17784;SDS011;9016;53.582;10.062;2023-04-28T00:50:26;0.20;;;0.20;;
17784;SDS011;9016;53.582;10.062;2023-04-28T00:52:56;0.20;;;0.20;;
17784;SDS011;9016;53.582;10.062;2023-04-28T00:55:25;0.20;;;0.20;;
17784;SDS011;9016;53.582;10.062;2023-04-28T00:57:58;0.20;;;0.20;;
17784;SDS011;9016;53.582;10.062;2023-04-28T01:00:26;0.20;;;0.20;;
17784;SDS011;9016;53.582;10.062;2023-04-28T01:02:54;0.20;;;0.20;;
17784;SDS011;9016;53.582;10.062;2023-04-28T01:05:24;0.30;;;0.30;;
17784;SDS011;9016;53.582;10.062;2023-04-28T01:07:53;0.20;;;0.20;;
17784;SDS011;9016;53.582;10.062;2023-04-28T01:10:22;0.20;;;0.20;;
17784;SDS011;9016;53.582;10.062;2023-04-28T01:12:50;0.20;;;0.20;;
17784;SDS011;9016;53.582;10.062;2023-04-28T01:15:18;0.30;;;0.30;;
17784;SDS011;9016;53.582;10.062;2023-04-28T01:17:47;0.20;;;0.20;;
17784;SDS011;9016;53.582;10.062;2023-04-28T01:20:15;0.20;;;0.20;;
17784;SDS011;9016;53.582;10.062;2023-04-28T01:22:43;0.20;;;0.20;;
17784;SDS011;9016;53.582;10.062;2023-04-28T01:25:13;0.20;;;0.20;;
17784;SDS011;9016;53.582;10.062;2023-04-28T01:27:41;0.20;;;0.20;;
17784;SDS011;9016;53.582;10.062;2023-04-28T01:30:09;0.20;;;0.20;;
17784;SDS011;9016;53.582;10.062;2023-04-28T01:32:37;0.20;;;0.20;;
17784;SDS011;9016;53.582;10.062;2023-04-28T01:35:05;0.20;;;0.20;;
17784;SDS011;9016;53.582;10.062;2023-04-28T01:37:34;0.20;;;0.20;;
17784;SDS011;9016;53.582;10.062;2023-04-28T01:40:02;0.20;;;0.20;;
17784;SDS011;9016;53.582;10.062;2023-04-28T01:42:32;0.20;;;0.20;;
17784;SDS011;9016;53.582;10.062;2023-04-28T01:45:00;0.20;;;0.20;;
17784;SDS011;9016;53.582;10.062;2023-04-28T01:47:28;0.20;;;0.20;;
17784;SDS011;9016;53.582;10.062;2023-04-28T01:49:56;0.30;;;0.30;;
17784;SDS011;9016;53.582;10.062;2023-04-28T01:52:26;0.20;;;0.20;;
17784;SDS011;9016;53.582;10.062;2023-04-28T01:54:54;0.20;;;0.20;;
17784;SDS011;9016;53.582;10.062;2023-04-28T01:57:22;0.20;;;0.20;;
17784;SDS011;9016;53.582;10.062;2023-04-28T01:59:52;0.20;;;0.20;;
17784;SDS011;9016;53.582;10.062;2023-04-28T02:02:20;0.20;;;0.20;;
17784;SDS011;9016;53.582;10.062;2023-04-28T02:04:48;0.20;;;0.20;;
17784;SDS011;9016;53.582;10.062;2023-04-28T02:07:16;0.20;;;0.20;;
17784;SDS011;9016;53.582;10.062;2023-04-28T02:09:44;0.20;;;0.20;;
17784;SDS011;9016;53.582;10.062;2023-04-28T02:12:12;0.20;;;0.20;;
17784;SDS011;9016;53.582;10.062;2023-04-28T02:14:40;0.20;;;0.20;;
17784;SDS011;9016;53.582;10.062;2023-04-28T02:17:09;0.20;;;0.20;;
17784;SDS011;9016;53.582;10.062;2023-04-28T02:19:37;0.20;;;0.20;;
17784;SDS011;9016;53.582;10.062;2023-04-28T02:22:05;0.20;;;0.20;;
17784;SDS011;9016;53.582;10.062;2023-04-28T02:24:34;0.20;;;0.20;;
17784;SDS011;9016;53.582;10.062;2023-04-28T02:27:04;0.20;;;0.20;;
17784;SDS011;9016;53.582;10.062;2023-04-28T02:29:32;0.23;;;0.23;;
17784;SDS011;9016;53.582;10.062;2023-04-28T02:32:00;0.20;;;0.20;;
17784;SDS011;9016;53.582;10.062;2023-04-28T02:34:30;0.20;;;0.20;;
17784;SDS011;9016;53.582;10.062;2023-04-28T02:36:58;0.20;;;0.20;;
17784;SDS011;9016;53.582;10.062;2023-04-28T02:39:26;0.20;;;0.20;;
17784;SDS011;9016;53.582;10.062;2023-04-28T02:41:55;0.20;;;0.20;;
17784;SDS011;9016;53.582;10.062;2023-04-28T02:44:23;0.20;;;0.20;;
17784;SDS011;9016;53.582;10.062;2023-04-28T02:46:51;0.20;;;0.20;;
17784;SDS011;9016;53.582;10.062;2023-04-28T02:49:19;0.30;;;0.30;;
17784;SDS011;9016;53.582;10.062;2023-04-28T02:51:48;0.20;;;0.20;;
17784;SDS011;9016;53.582;10.062;2023-04-28T02:54:16;0.20;;;0.20;;
17784;SDS011;9016;53.582;10.062;2023-04-28T02:56:52;0.20;;;0.20;;
17784;SDS011;9016;53.582;10.062;2023-04-28T02:59:20;0.20;;;0.20;;
17784;SDS011;9016;53.582;10.062;2023-04-28T03:01:49;0.20;;;0.20;;
17784;SDS011;9016;53.582;10.062;2023-04-28T03:04:18;0.20;;;0.20;;
17784;SDS011;9016;53.582;10.062;2023-04-28T03:06:46;0.20;;;0.20;;
17784;SDS011;9016;53.582;10.062;2023-04-28T03:09:16;0.20;;;0.20;;
17784;SDS011;9016;53.582;10.062;2023-04-28T03:11:44;0.20;;;0.20;;
17784;SDS011;9016;53.582;10.062;2023-04-28T03:14:12;0.20;;;0.20;;
17784;SDS011;9016;53.582;10.062;2023-04-28T03:16:40;0.20;;;0.20;;
17784;SDS011;9016;53.582;10.062;2023-04-28T03:19:09;0.20;;;0.20;;
17784;SDS011;9016;53.582;10.062;2023-04-28T03:21:37;0.20;;;0.20;;
17784;SDS011;9016;53.582;10.062;2023-04-28T03:24:06;0.20;;;0.20;;
17784;SDS011;9016;53.582;10.062;2023-04-28T03:26:34;0.20;;;0.20;;
17784;SDS011;9016;53.582;10.062;2023-04-28T03:29:02;0.20;;;0.20;;
17784;SDS011;9016;53.582;10.062;2023-04-28T03:31:30;0.20;;;0.20;;
17784;SDS011;9016;53.582;10.062;2023-04-28T03:33:58;0.20;;;0.20;;
17784;SDS011;9016;53.582;10.062;2023-04-28T03:36:26;0.20;;;0.20;;
17784;SDS011;9016;53.582;10.062;2023-04-28T03:38:54;0.20;;;0.20;;
17784;SDS011;9016;53.582;10.062;2023-04-28T03:41:24;0.20;;;0.20;;
17784;SDS011;9016;53.582;10.062;2023-04-28T03:43:51;0.20;;;0.20;;
17784;SDS011;9016;53.582;10.062;2023-04-28T03:46:22;0.20;;;0.20;;
17784;SDS011;9016;53.582;10.062;2023-04-28T03:48:50;0.20;;;0.20;;
17784;SDS011;9016;53.582;10.062;2023-04-28T03:51:18;0.20;;;0.20;;
17784;SDS011;9016;53.582;10.062;2023-04-28T03:53:46;0.20;;;0.20;;
17784;SDS011;9016;53.582;10.062;2023-04-28T03:56:15;0.20;;;0.20;;
17784;SDS011;9016;53.582;10.062;2023-04-28T03:58:44;0.20;;;0.20;;
17784;SDS011;9016;53.582;10.062;2023-04-28T04:01:12;0.10;;;0.10;;
17784;SDS011;9016;53.582;10.062;2023-04-28T04:03:40;0.20;;;0.20;;
17784;SDS011;9016;53.582;10.062;2023-04-28T04:06:08;0.20;;;0.20;;
17784;SDS011;9016;53.582;10.062;2023-04-28T04:08:36;0.20;;;0.20;;
17784;SDS011;9016;53.582;10.062;2023-04-28T04:11:04;0.20;;;0.20;;
17784;SDS011;9016;53.582;10.062;2023-04-28T04:13:32;0.20;;;0.20;;
17784;SDS011;9016;53.582;10.062;2023-04-28T04:16:02;0.20;;;0.20;;
17784;SDS011;9016;53.582;10.062;2023-04-28T04:18:30;0.20;;;0.20;;
17784;SDS011;9016;53.582;10.062;2023-04-28T04:20:58;0.20;;;0.20;;
17784;SDS011;9016;53.582;10.062;2023-04-28T04:23:26;0.20;;;0.20;;
17784;SDS011;9016;53.582;10.062;2023-04-28T04:25:54;0.20;;;0.20;;
17784;SDS011;9016;53.582;10.062;2023-04-28T04:28:22;0.20;;;0.20;;
17784;SDS011;9016;53.582;10.062;2023-04-28T04:30:50;0.20;;;0.20;;
17784;SDS011;9016;53.582;10.062;2023-04-28T04:33:20;0.20;;;0.20;;
17784;SDS011;9016;53.582;10.062;2023-04-28T04:35:48;0.20;;;0.20;;
17784;SDS011;9016;53.582;10.062;2023-04-28T04:38:16;0.20;;;0.20;;
17784;SDS011;9016;53.582;10.062;2023-04-28T04:40:44;0.20;;;0.20;;
17784;SDS011;9016;53.582;10.062;2023-04-28T04:43:12;0.20;;;0.20;;
17784;SDS011;9016;53.582;10.062;2023-04-28T04:45:40;0.20;;;0.20;;
17784;SDS011;9016;53.582;10.062;2023-04-28T04:48:08;0.20;;;0.20;;
17784;SDS011;9016;53.582;10.062;2023-04-28T04:50:38;0.20;;;0.20;;
17784;SDS011;9016;53.582;10.062;2023-04-28T04:53:07;0.20;;;0.20;;
17784;SDS011;9016;53.582;10.062;2023-04-28T04:55:41;0.20;;;0.20;;
17784;SDS011;9016;53.582;10.062;2023-04-28T04:58:12;0.20;;;0.20;;
17784;SDS011;9016;53.582;10.062;2023-04-28T05:00:43;0.20;;;0.20;;
17784;SDS011;9016;53.582;10.062;2023-04-28T05:03:10;0.10;;;0.10;;
17784;SDS011;9016;53.582;10.062;2023-04-28T05:05:41;0.20;;;0.20;;
17784;SDS011;9016;53.582;10.062;2023-04-28T05:08:11;0.20;;;0.20;;
17784;SDS011;9016;53.582;10.062;2023-04-28T05:10:40;0.20;;;0.20;;
17784;SDS011;9016;53.582;10.062;2023-04-28T05:13:08;0.20;;;0.20;;
17784;SDS011;9016;53.582;10.062;2023-04-28T05:15:36;0.20;;;0.20;;
17784;SDS011;9016;53.582;10.062;2023-04-28T05:18:04;0.20;;;0.20;;
17784;SDS011;9016;53.582;10.062;2023-04-28T05:20:36;0.20;;;0.20;;
17784;SDS011;9016;53.582;10.062;2023-04-28T05:23:05;0.20;;;0.20;;
17784;SDS011;9016;53.582;10.062;2023-04-28T05:25:33;0.20;;;0.20;;
17784;SDS011;9016;53.582;10.062;2023-04-28T05:28:01;0.20;;;0.20;;
17784;SDS011;9016;53.582;10.062;2023-04-28T05:30:33;0.20;;;0.20;;
17784;SDS011;9016;53.582;10.062;2023-04-28T05:33:01;0.20;;;0.20;;
17784;SDS011;9016;53.582;10.062;2023-04-28T05:35:30;0.20;;;0.20;;
17784;SDS011;9016;53.582;10.062;2023-04-28T05:37:58;0.20;;;0.20;;
17784;SDS011;9016;53.582;10.062;2023-04-28T05:40:28;0.20;;;0.20;;
17784;SDS011;9016;53.582;10.062;2023-04-28T05:42:56;0.20;;;0.20;;
17784;SDS011;9016;53.582;10.062;2023-04-28T05:45:24;0.20;;;0.20;;
17784;SDS011;9016;53.582;10.062;2023-04-28T05:47:52;0.20;;;0.20;;
17784;SDS011;9016;53.582;10.062;2023-04-28T05:50:21;0.20;;;0.20;;
17784;SDS011;9016;53.582;10.062;2023-04-28T05:52:51;0.20;;;0.20;;
17784;SDS011;9016;53.582;10.062;2023-04-28T05:55:20;0.30;;;0.30;;
17784;SDS011;9016;53.582;10.062;2023-04-28T05:57:49;0.20;;;0.20;;
17784;SDS011;9016;53.582;10.062;2023-04-28T06:00:18;0.20;;;0.20;;
17784;SDS011;9016;53.582;10.062;2023-04-28T06:02:47;0.30;;;0.30;;
17784;SDS011;9016;53.582;10.062;2023-04-28T06:05:15;0.20;;;0.20;;
17784;SDS011;9016;53.582;10.062;2023-04-28T06:07:44;0.20;;;0.20;;
17784;SDS011;9016;53.582;10.062;2023-04-28T06:10:15;0.20;;;0.20;;
17784;SDS011;9016;53.582;10.062;2023-04-28T06:12:43;0.30;;;0.30;;
17784;SDS011;9016;53.582;10.062;2023-04-28T06:15:13;0.40;;;0.40;;
17784;SDS011;9016;53.582;10.062;2023-04-28T06:17:41;0.20;;;0.20;;
17784;SDS011;9016;53.582;10.062;2023-04-28T06:20:12;0.23;;;0.23;;
17784;SDS011;9016;53.582;10.062;2023-04-28T06:22:42;0.30;;;0.30;;
17784;SDS011;9016;53.582;10.062;2023-04-28T06:25:10;0.30;;;0.30;;
17784;SDS011;9016;53.582;10.062;2023-04-28T06:27:38;0.20;;;0.20;;
17784;SDS011;9016;53.582;10.062;2023-04-28T06:30:07;0.30;;;0.30;;
17784;SDS011;9016;53.582;10.062;2023-04-28T06:32:37;0.30;;;0.30;;
17784;SDS011;9016;53.582;10.062;2023-04-28T06:35:05;0.30;;;0.30;;
17784;SDS011;9016;53.582;10.062;2023-04-28T06:37:34;0.23;;;0.23;;
17784;SDS011;9016;53.582;10.062;2023-04-28T06:40:02;0.27;;;0.27;;
17784;SDS011;9016;53.582;10.062;2023-04-28T06:42:30;0.30;;;0.30;;
17784;SDS011;9016;53.582;10.062;2023-04-28T06:44:58;0.30;;;0.30;;
17784;SDS011;9016;53.582;10.062;2023-04-28T06:47:26;0.30;;;0.30;;
17784;SDS011;9016;53.582;10.062;2023-04-28T06:49:56;0.20;;;0.20;;
17784;SDS011;9016;53.582;10.062;2023-04-28T06:52:24;0.30;;;0.30;;
17784;SDS011;9016;53.582;10.062;2023-04-28T06:55:05;0.40;;;0.40;;
17784;SDS011;9016;53.582;10.062;2023-04-28T06:57:34;0.50;;;0.50;;
17784;SDS011;9016;53.582;10.062;2023-04-28T07:00:04;0.40;;;0.40;;
17784;SDS011;9016;53.582;10.062;2023-04-28T07:02:33;0.40;;;0.40;;
17784;SDS011;9016;53.582;10.062;2023-04-28T07:05:04;0.40;;;0.40;;
17784;SDS011;9016;53.582;10.062;2023-04-28T07:07:32;0.50;;;0.50;;
17784;SDS011;9016;53.582;10.062;2023-04-28T07:10:00;0.50;;;0.50;;
17784;SDS011;9016;53.582;10.062;2023-04-28T07:12:29;0.50;;;0.50;;
17784;SDS011;9016;53.582;10.062;2023-04-28T07:14:56;0.60;;;0.60;;
17784;SDS011;9016;53.582;10.062;2023-04-28T07:17:24;0.70;;;0.70;;
17784;SDS011;9016;53.582;10.062;2023-04-28T07:19:53;0.50;;;0.50;;
17784;SDS011;9016;53.582;10.062;2023-04-28T07:22:22;0.60;;;0.60;;
17784;SDS011;9016;53.582;10.062;2023-04-28T07:24:50;0.50;;;0.50;;
17784;SDS011;9016;53.582;10.062;2023-04-28T07:27:18;0.60;;;0.60;;
17784;SDS011;9016;53.582;10.062;2023-04-28T07:29:46;0.60;;;0.60;;
17784;SDS011;9016;53.582;10.062;2023-04-28T07:32:14;0.60;;;0.60;;
17784;SDS011;9016;53.582;10.062;2023-04-28T07:34:43;0.60;;;0.60;;
17784;SDS011;9016;53.582;10.062;2023-04-28T07:37:11;0.60;;;0.60;;
17784;SDS011;9016;53.582;10.062;2023-04-28T07:39:40;0.60;;;0.60;;
17784;SDS011;9016;53.582;10.062;2023-04-28T07:42:08;0.60;;;0.60;;
17784;SDS011;9016;53.582;10.062;2023-04-28T07:44:36;0.60;;;0.60;;
17784;SDS011;9016;53.582;10.062;2023-04-28T07:47:04;0.60;;;0.60;;
17784;SDS011;9016;53.582;10.062;2023-04-28T07:49:32;0.60;;;0.60;;
17784;SDS011;9016;53.582;10.062;2023-04-28T07:52:00;0.60;;;0.60;;
17784;SDS011;9016;53.582;10.062;2023-04-28T07:54:28;0.60;;;0.60;;
17784;SDS011;9016;53.582;10.062;2023-04-28T07:56:57;0.60;;;0.60;;
17784;SDS011;9016;53.582;10.062;2023-04-28T07:59:26;0.50;;;0.50;;
17784;SDS011;9016;53.582;10.062;2023-04-28T08:01:53;0.50;;;0.50;;
17784;SDS011;9016;53.582;10.062;2023-04-28T08:04:22;0.60;;;0.60;;
17784;SDS011;9016;53.582;10.062;2023-04-28T08:06:51;0.60;;;0.60;;
17784;SDS011;9016;53.582;10.062;2023-04-28T08:09:20;0.60;;;0.60;;
17784;SDS011;9016;53.582;10.062;2023-04-28T08:11:48;0.50;;;0.50;;
17784;SDS011;9016;53.582;10.062;2023-04-28T08:14:18;0.50;;;0.50;;
17784;SDS011;9016;53.582;10.062;2023-04-28T08:16:46;0.50;;;0.50;;
17784;SDS011;9016;53.582;10.062;2023-04-28T08:19:15;0.50;;;0.50;;
17784;SDS011;9016;53.582;10.062;2023-04-28T08:21:42;0.50;;;0.50;;
17784;SDS011;9016;53.582;10.062;2023-04-28T08:24:11;0.55;;;0.55;;
17784;SDS011;9016;53.582;10.062;2023-04-28T08:26:39;0.40;;;0.40;;
17784;SDS011;9016;53.582;10.062;2023-04-28T08:29:07;0.40;;;0.40;;
17784;SDS011;9016;53.582;10.062;2023-04-28T08:31:36;0.40;;;0.40;;
17784;SDS011;9016;53.582;10.062;2023-04-28T08:34:04;0.40;;;0.40;;
17784;SDS011;9016;53.582;10.062;2023-04-28T08:36:32;0.40;;;0.40;;
17784;SDS011;9016;53.582;10.062;2023-04-28T08:39:00;0.40;;;0.40;;
17784;SDS011;9016;53.582;10.062;2023-04-28T08:41:31;0.40;;;0.40;;
17784;SDS011;9016;53.582;10.062;2023-04-28T08:43:59;0.40;;;0.40;;
17784;SDS011;9016;53.582;10.062;2023-04-28T08:46:27;0.40;;;0.40;;
17784;SDS011;9016;53.582;10.062;2023-04-28T08:48:59;0.40;;;0.40;;
17784;SDS011;9016;53.582;10.062;2023-04-28T08:51:30;0.40;;;0.40;;
17784;SDS011;9016;53.582;10.062;2023-04-28T08:54:01;0.32;;;0.32;;
17784;SDS011;9016;53.582;10.062;2023-04-28T08:56:50;0.30;;;0.30;;
17784;SDS011;9016;53.582;10.062;2023-04-28T08:59:18;0.47;;;0.47;;
17784;SDS011;9016;53.582;10.062;2023-04-28T09:01:47;0.40;;;0.40;;
17784;SDS011;9016;53.582;10.062;2023-04-28T09:04:17;0.30;;;0.30;;
17784;SDS011;9016;53.582;10.062;2023-04-28T09:06:47;0.30;;;0.30;;
17784;SDS011;9016;53.582;10.062;2023-04-28T09:09:19;0.40;;;0.40;;
17784;SDS011;9016;53.582;10.062;2023-04-28T09:11:55;0.30;;;0.30;;
17784;SDS011;9016;53.582;10.062;2023-04-28T09:14:25;0.30;;;0.30;;
17784;SDS011;9016;53.582;10.062;2023-04-28T09:16:54;0.40;;;0.40;;
17784;SDS011;9016;53.582;10.062;2023-04-28T09:19:23;0.30;;;0.30;;
17784;SDS011;9016;53.582;10.062;2023-04-28T09:21:59;0.30;;;0.30;;
17784;SDS011;9016;53.582;10.062;2023-04-28T09:24:36;0.30;;;0.30;;
17784;SDS011;9016;53.582;10.062;2023-04-28T09:27:06;0.30;;;0.30;;
17784;SDS011;9016;53.582;10.062;2023-04-28T09:29:37;0.30;;;0.30;;
17784;SDS011;9016;53.582;10.062;2023-04-28T09:32:12;0.43;;;0.43;;
17784;SDS011;9016;53.582;10.062;2023-04-28T09:34:43;0.30;;;0.30;;
17784;SDS011;9016;53.582;10.062;2023-04-28T09:37:15;0.30;;;0.30;;
17784;SDS011;9016;53.582;10.062;2023-04-28T09:39:43;0.30;;;0.30;;
17784;SDS011;9016;53.582;10.062;2023-04-28T09:44:59;0.30;;;0.30;;
17784;SDS011;9016;53.582;10.062;2023-04-28T09:47:29;0.30;;;0.30;;
17784;SDS011;9016;53.582;10.062;2023-04-28T09:50:00;0.30;;;0.30;;
17784;SDS011;9016;53.582;10.062;2023-04-28T09:52:29;0.30;;;0.30;;
17784;SDS011;9016;53.582;10.062;2023-04-28T09:55:00;0.40;;;0.40;;
17784;SDS011;9016;53.582;10.062;2023-04-28T09:57:30;0.30;;;0.30;;
17784;SDS011;9016;53.582;10.062;2023-04-28T09:59:59;0.40;;;0.40;;
17784;SDS011;9016;53.582;10.062;2023-04-28T10:02:27;0.30;;;0.30;;
17784;SDS011;9016;53.582;10.062;2023-04-28T10:05:10;0.30;;;0.30;;
17784;SDS011;9016;53.582;10.062;2023-04-28T10:07:39;0.30;;;0.30;;
17784;SDS011;9016;53.582;10.062;2023-04-28T10:10:08;0.30;;;0.30;;
17784;SDS011;9016;53.582;10.062;2023-04-28T10:12:36;0.40;;;0.40;;
17784;SDS011;9016;53.582;10.062;2023-04-28T10:15:06;0.33;;;0.33;;
17784;SDS011;9016;53.582;10.062;2023-04-28T10:17:36;0.40;;;0.40;;
17784;SDS011;9016;53.582;10.062;2023-04-28T10:20:06;0.30;;;0.30;;
17784;SDS011;9016;53.582;10.062;2023-04-28T10:22:41;0.30;;;0.30;;
17784;SDS011;9016;53.582;10.062;2023-04-28T10:25:24;0.30;;;0.30;;
17784;SDS011;9016;53.582;10.062;2023-04-28T10:27:53;0.30;;;0.30;;
17784;SDS011;9016;53.582;10.062;2023-04-28T10:30:22;0.30;;;0.30;;
17784;SDS011;9016;53.582;10.062;2023-04-28T10:35:52;0.30;;;0.30;;
17784;SDS011;9016;53.582;10.062;2023-04-28T10:38:22;0.30;;;0.30;;
17784;SDS011;9016;53.582;10.062;2023-04-28T10:40:50;0.30;;;0.30;;
17784;SDS011;9016;53.582;10.062;2023-04-28T10:43:34;0.30;;;0.30;;
17784;SDS011;9016;53.582;10.062;2023-04-28T10:46:05;0.47;;;0.47;;
17784;SDS011;9016;53.582;10.062;2023-04-28T10:51:33;0.30;;;0.30;;
17784;SDS011;9016;53.582;10.062;2023-04-28T10:54:07;0.30;;;0.30;;
17784;SDS011;9016;53.582;10.062;2023-04-28T10:59:50;0.30;;;0.30;;
17784;SDS011;9016;53.582;10.062;2023-04-28T11:02:39;0.30;;;0.30;;
17784;SDS011;9016;53.582;10.062;2023-04-28T11:05:13;0.40;;;0.40;;
17784;SDS011;9016;53.582;10.062;2023-04-28T11:11:16;0.30;;;0.30;;
17784;SDS011;9016;53.582;10.062;2023-04-28T11:13:49;0.30;;;0.30;;
17784;SDS011;9016;53.582;10.062;2023-04-28T11:16:18;0.30;;;0.30;;
17784;SDS011;9016;53.582;10.062;2023-04-28T11:18:50;0.30;;;0.30;;
17784;SDS011;9016;53.582;10.062;2023-04-28T11:21:28;0.40;;;0.40;;
17784;SDS011;9016;53.582;10.062;2023-04-28T11:23:57;0.40;;;0.40;;
17784;SDS011;9016;53.582;10.062;2023-04-28T11:26:27;0.30;;;0.30;;
17784;SDS011;9016;53.582;10.062;2023-04-28T11:28:56;0.30;;;0.30;;
17784;SDS011;9016;53.582;10.062;2023-04-28T11:31:25;0.30;;;0.30;;
17784;SDS011;9016;53.582;10.062;2023-04-28T11:33:58;0.30;;;0.30;;
17784;SDS011;9016;53.582;10.062;2023-04-28T11:36:30;0.30;;;0.30;;
17784;SDS011;9016;53.582;10.062;2023-04-28T11:39:01;0.30;;;0.30;;
17784;SDS011;9016;53.582;10.062;2023-04-28T11:41:35;0.30;;;0.30;;
17784;SDS011;9016;53.582;10.062;2023-04-28T11:44:12;0.30;;;0.30;;
17784;SDS011;9016;53.582;10.062;2023-04-28T11:46:44;0.30;;;0.30;;
17784;SDS011;9016;53.582;10.062;2023-04-28T11:49:16;0.30;;;0.30;;
17784;SDS011;9016;53.582;10.062;2023-04-28T11:51:45;0.30;;;0.30;;
17784;SDS011;9016;53.582;10.062;2023-04-28T11:54:19;0.30;;;0.30;;
17784;SDS011;9016;53.582;10.062;2023-04-28T11:56:49;0.30;;;0.30;;
17784;SDS011;9016;53.582;10.062;2023-04-28T11:59:18;0.40;;;0.40;;
17784;SDS011;9016;53.582;10.062;2023-04-28T12:01:52;0.30;;;0.30;;
17784;SDS011;9016;53.582;10.062;2023-04-28T12:04:25;0.30;;;0.30;;
17784;SDS011;9016;53.582;10.062;2023-04-28T12:07:02;0.30;;;0.30;;
17784;SDS011;9016;53.582;10.062;2023-04-28T12:09:31;0.30;;;0.30;;
17784;SDS011;9016;53.582;10.062;2023-04-28T12:12:02;0.30;;;0.30;;
17784;SDS011;9016;53.582;10.062;2023-04-28T12:14:32;0.30;;;0.30;;
17784;SDS011;9016;53.582;10.062;2023-04-28T12:17:23;0.30;;;0.30;;
17784;SDS011;9016;53.582;10.062;2023-04-28T12:19:52;0.30;;;0.30;;
17784;SDS011;9016;53.582;10.062;2023-04-28T12:22:21;0.30;;;0.30;;
17784;SDS011;9016;53.582;10.062;2023-04-28T12:25:02;0.30;;;0.30;;
17784;SDS011;9016;53.582;10.062;2023-04-28T12:27:34;0.30;;;0.30;;
17784;SDS011;9016;53.582;10.062;2023-04-28T12:32:54;0.30;;;0.30;;
17784;SDS011;9016;53.582;10.062;2023-04-28T12:35:23;0.30;;;0.30;;
17784;SDS011;9016;53.582;10.062;2023-04-28T12:37:52;0.30;;;0.30;;
17784;SDS011;9016;53.582;10.062;2023-04-28T12:40:24;0.30;;;0.30;;
17784;SDS011;9016;53.582;10.062;2023-04-28T12:42:54;0.30;;;0.30;;
17784;SDS011;9016;53.582;10.062;2023-04-28T12:45:22;0.30;;;0.30;;
17784;SDS011;9016;53.582;10.062;2023-04-28T12:47:50;0.30;;;0.30;;
17784;SDS011;9016;53.582;10.062;2023-04-28T12:50:18;0.40;;;0.40;;
17784;SDS011;9016;53.582;10.062;2023-04-28T12:52:46;0.20;;;0.20;;
17784;SDS011;9016;53.582;10.062;2023-04-28T12:55:14;0.20;;;0.20;;
17784;SDS011;9016;53.582;10.062;2023-04-28T12:57:42;0.30;;;0.30;;
17784;SDS011;9016;53.582;10.062;2023-04-28T13:00:12;0.30;;;0.30;;
17784;SDS011;9016;53.582;10.062;2023-04-28T13:02:41;0.30;;;0.30;;
17784;SDS011;9016;53.582;10.062;2023-04-28T13:05:10;0.30;;;0.30;;
17784;SDS011;9016;53.582;10.062;2023-04-28T13:07:39;0.30;;;0.30;;
17784;SDS011;9016;53.582;10.062;2023-04-28T13:10:08;0.30;;;0.30;;
17784;SDS011;9016;53.582;10.062;2023-04-28T13:12:36;0.30;;;0.30;;
17784;SDS011;9016;53.582;10.062;2023-04-28T13:15:04;0.30;;;0.30;;
17784;SDS011;9016;53.582;10.062;2023-04-28T13:17:34;0.30;;;0.30;;
17784;SDS011;9016;53.582;10.062;2023-04-28T13:20:02;0.30;;;0.30;;
17784;SDS011;9016;53.582;10.062;2023-04-28T13:22:32;0.30;;;0.30;;
17784;SDS011;9016;53.582;10.062;2023-04-28T13:25:00;0.30;;;0.30;;
17784;SDS011;9016;53.582;10.062;2023-04-28T13:27:28;0.30;;;0.30;;
17784;SDS011;9016;53.582;10.062;2023-04-28T13:29:56;0.30;;;0.30;;
17784;SDS011;9016;53.582;10.062;2023-04-28T13:32:25;0.30;;;0.30;;
17784;SDS011;9016;53.582;10.062;2023-04-28T13:34:54;0.30;;;0.30;;
17784;SDS011;9016;53.582;10.062;2023-04-28T13:37:22;0.30;;;0.30;;
17784;SDS011;9016;53.582;10.062;2023-04-28T13:39:50;0.20;;;0.20;;
17784;SDS011;9016;53.582;10.062;2023-04-28T13:42:18;0.30;;;0.30;;
17784;SDS011;9016;53.582;10.062;2023-04-28T13:44:47;0.30;;;0.30;;
17784;SDS011;9016;53.582;10.062;2023-04-28T13:47:14;0.20;;;0.20;;
17784;SDS011;9016;53.582;10.062;2023-04-28T13:49:42;0.30;;;0.30;;
17784;SDS011;9016;53.582;10.062;2023-04-28T13:52:12;0.30;;;0.30;;
17784;SDS011;9016;53.582;10.062;2023-04-28T13:54:40;0.30;;;0.30;;
17784;SDS011;9016;53.582;10.062;2023-04-28T13:57:08;0.30;;;0.30;;
17784;SDS011;9016;53.582;10.062;2023-04-28T13:59:38;0.30;;;0.30;;
17784;SDS011;9016;53.582;10.062;2023-04-28T14:02:07;0.30;;;0.30;;
17784;SDS011;9016;53.582;10.062;2023-04-28T14:04:37;0.30;;;0.30;;
17784;SDS011;9016;53.582;10.062;2023-04-28T14:07:06;0.30;;;0.30;;
17784;SDS011;9016;53.582;10.062;2023-04-28T14:09:36;0.30;;;0.30;;
17784;SDS011;9016;53.582;10.062;2023-04-28T14:12:05;0.30;;;0.30;;
17784;SDS011;9016;53.582;10.062;2023-04-28T14:14:33;0.30;;;0.30;;
17784;SDS011;9016;53.582;10.062;2023-04-28T14:17:05;0.30;;;0.30;;
17784;SDS011;9016;53.582;10.062;2023-04-28T14:19:33;0.30;;;0.30;;
17784;SDS011;9016;53.582;10.062;2023-04-28T14:22:01;0.30;;;0.30;;
17784;SDS011;9016;53.582;10.062;2023-04-28T14:24:29;0.30;;;0.30;;
17784;SDS011;9016;53.582;10.062;2023-04-28T14:26:58;0.30;;;0.30;;
17784;SDS011;9016;53.582;10.062;2023-04-28T14:29:26;0.30;;;0.30;;
17784;SDS011;9016;53.582;10.062;2023-04-28T14:31:54;0.37;;;0.37;;
17784;SDS011;9016;53.582;10.062;2023-04-28T14:34:22;0.30;;;0.30;;
17784;SDS011;9016;53.582;10.062;2023-04-28T14:36:50;0.30;;;0.30;;
17784;SDS011;9016;53.582;10.062;2023-04-28T14:39:18;0.30;;;0.30;;
17784;SDS011;9016;53.582;10.062;2023-04-28T14:41:46;0.30;;;0.30;;
17784;SDS011;9016;53.582;10.062;2023-04-28T14:44:16;0.20;;;0.20;;
17784;SDS011;9016;53.582;10.062;2023-04-28T14:46:44;0.30;;;0.30;;
17784;SDS011;9016;53.582;10.062;2023-04-28T14:49:13;0.20;;;0.20;;
17784;SDS011;9016;53.582;10.062;2023-04-28T14:51:42;0.30;;;0.30;;
17784;SDS011;9016;53.582;10.062;2023-04-28T14:54:10;0.20;;;0.20;;
17784;SDS011;9016;53.582;10.062;2023-04-28T14:56:39;0.40;;;0.40;;
17784;SDS011;9016;53.582;10.062;2023-04-28T14:59:07;0.20;;;0.20;;
17784;SDS011;9016;53.582;10.062;2023-04-28T15:01:37;0.30;;;0.30;;
17784;SDS011;9016;53.582;10.062;2023-04-28T15:04:05;0.30;;;0.30;;
17784;SDS011;9016;53.582;10.062;2023-04-28T15:06:35;0.30;;;0.30;;
17784;SDS011;9016;53.582;10.062;2023-04-28T15:09:03;0.20;;;0.20;;
17784;SDS011;9016;53.582;10.062;2023-04-28T15:11:32;0.30;;;0.30;;
17784;SDS011;9016;53.582;10.062;2023-04-28T15:14:00;0.30;;;0.30;;
17784;SDS011;9016;53.582;10.062;2023-04-28T15:16:28;0.20;;;0.20;;
17784;SDS011;9016;53.582;10.062;2023-04-28T15:18:58;0.30;;;0.30;;